createdAt,value
2022-09-20T00:01:01.283Z,95.75
2022-09-20T00:03:27.766Z,96.41
2022-09-20T00:05:54.018Z,97.56
2022-09-20T00:08:20.292Z,99.38
2022-09-20T00:10:47.256Z,100.00
2022-09-20T00:13:13.543Z,100.00
2022-09-20T00:15:39.801Z,100.00
2022-09-20T00:18:06.049Z,100.00
2022-09-20T00:20:32.439Z,100.00
2022-09-20T00:22:58.687Z,100.00
2022-09-20T00:25:24.953Z,100.00
2022-09-20T00:27:51.227Z,99.01
2022-09-20T00:30:17.504Z,98.36
2022-09-20T00:32:43.765Z,97.82
2022-09-20T00:35:13.171Z,97.35
2022-09-20T00:37:39.713Z,97.51
2022-09-20T00:40:06.027Z,96.90
2022-09-20T00:42:32.360Z,96.40
2022-09-20T00:44:58.718Z,96.22
2022-09-20T00:47:24.976Z,96.10
2022-09-20T00:49:51.230Z,96.71
2022-09-20T00:52:17.477Z,96.74
2022-09-20T00:54:43.737Z,96.61
2022-09-20T00:57:09.996Z,96.30
2022-09-20T00:59:36.280Z,96.46
2022-09-20T01:02:03.074Z,96.64
2022-09-20T01:04:29.422Z,98.16
2022-09-20T01:06:55.673Z,97.60
2022-09-20T01:09:21.935Z,97.35
2022-09-20T01:11:48.226Z,96.90
2022-09-20T01:14:14.808Z,97.02
2022-09-20T01:16:41.224Z,96.85
2022-09-20T01:19:07.672Z,96.59
2022-09-20T01:21:33.961Z,96.71
2022-09-20T01:24:00.216Z,96.78
2022-09-20T01:26:26.466Z,96.28
2022-09-20T01:28:52.883Z,96.28
2022-09-20T01:31:19.328Z,96.98
2022-09-20T01:33:45.648Z,96.70
2022-09-20T01:36:11.906Z,96.47
2022-09-20T01:38:38.191Z,96.49
2022-09-20T01:41:04.447Z,96.65
2022-09-20T01:43:30.735Z,96.44
2022-09-20T01:45:57.089Z,96.32
2022-09-20T01:48:23.394Z,96.84
2022-09-20T01:50:49.638Z,98.19
2022-09-20T01:53:15.889Z,98.12
2022-09-20T01:55:42.137Z,97.41
2022-09-20T01:58:11.444Z,97.53
2022-09-20T02:00:37.696Z,97.00
2022-09-20T02:03:04.058Z,97.79
2022-09-20T02:05:30.316Z,98.06
2022-09-20T02:07:56.596Z,98.31
2022-09-20T02:10:22.855Z,98.11
2022-09-20T02:12:49.143Z,98.42
2022-09-20T02:15:15.396Z,98.64
2022-09-20T02:17:41.687Z,98.31
2022-09-20T02:20:08.348Z,97.97
2022-09-20T02:22:35.242Z,97.75
2022-09-20T02:25:01.494Z,97.40
2022-09-20T02:27:27.744Z,97.36
2022-09-20T02:29:53.990Z,97.47
2022-09-20T02:32:20.247Z,97.92
2022-09-20T02:34:46.917Z,97.82
2022-09-20T02:37:13.163Z,97.64
2022-09-20T02:39:39.441Z,98.33
2022-09-20T02:42:05.687Z,97.57
2022-09-20T02:44:31.947Z,97.54
2022-09-20T02:46:58.191Z,97.21
2022-09-20T02:49:24.446Z,96.93
2022-09-20T02:51:51.802Z,97.31
2022-09-20T02:54:18.118Z,98.31
2022-09-20T02:56:44.375Z,98.50
2022-09-20T02:59:10.623Z,98.38
2022-09-20T03:01:36.930Z,98.23
2022-09-20T03:04:03.404Z,97.85
2022-09-20T03:06:29.667Z,97.74
2022-09-20T03:08:55.952Z,98.52
2022-09-20T03:11:22.209Z,97.71
2022-09-20T03:13:48.713Z,97.58
2022-09-20T03:16:15.041Z,98.15
2022-09-20T03:18:42.143Z,98.55
2022-09-20T03:21:08.342Z,97.96
2022-09-20T03:23:34.602Z,97.75
2022-09-20T03:26:00.863Z,97.55
2022-09-20T03:28:27.135Z,97.58
2022-09-20T03:30:53.408Z,97.09
2022-09-20T03:33:19.675Z,97.55
2022-09-20T03:35:45.949Z,97.54
2022-09-20T03:38:12.205Z,97.70
2022-09-20T03:40:40.759Z,97.26
2022-09-20T03:43:10.375Z,97.55
2022-09-20T03:45:36.838Z,97.02
2022-09-20T03:48:03.138Z,96.38
2022-09-20T03:50:29.395Z,96.43
2022-09-20T03:52:55.648Z,97.33
2022-09-20T03:55:22.505Z,97.14
2022-09-20T03:57:48.768Z,96.14
2022-09-20T04:00:15.034Z,96.71
2022-09-20T04:02:41.375Z,96.86
2022-09-20T04:05:07.665Z,96.30
2022-09-20T04:07:33.926Z,96.01
2022-09-20T04:10:00.213Z,96.41
2022-09-20T04:12:27.075Z,96.79
2022-09-20T04:14:53.710Z,96.20
2022-09-20T04:17:19.999Z,96.19
2022-09-20T04:19:46.250Z,96.96
2022-09-20T04:22:12.529Z,96.47
2022-09-20T04:24:39.026Z,96.33
2022-09-20T04:27:05.284Z,96.03
2022-09-20T04:29:31.696Z,96.64
2022-09-20T04:31:57.973Z,97.08
2022-09-20T04:34:24.323Z,96.84
2022-09-20T04:36:50.587Z,96.86
2022-09-20T04:39:16.854Z,97.73
2022-09-20T04:41:43.166Z,98.01
2022-09-20T04:44:12.008Z,97.78
2022-09-20T04:46:38.303Z,97.53
2022-09-20T04:49:04.555Z,97.93
2022-09-20T04:51:30.814Z,97.84
2022-09-20T04:53:57.324Z,97.59
2022-09-20T04:56:23.588Z,97.44
2022-09-20T04:58:49.975Z,98.63
2022-09-20T05:01:19.767Z,99.80
2022-09-20T05:03:46.115Z,99.29
2022-09-20T05:06:13.855Z,98.78
2022-09-20T05:08:40.774Z,99.01
2022-09-20T05:11:09.018Z,98.38
2022-09-20T05:13:35.287Z,98.14
2022-09-20T05:16:01.671Z,97.57
2022-09-20T05:18:27.944Z,96.97
2022-09-20T05:20:54.356Z,96.91
2022-09-20T05:23:20.722Z,96.25
2022-09-20T05:25:46.978Z,96.54
2022-09-20T05:28:13.359Z,96.42
2022-09-20T05:30:39.624Z,96.93
2022-09-20T05:33:05.992Z,97.43
2022-09-20T05:35:32.269Z,96.88
2022-09-20T05:37:59.143Z,98.20
2022-09-20T05:40:25.460Z,98.96
2022-09-20T05:42:53.921Z,99.48
2022-09-20T05:45:21.487Z,99.03
2022-09-20T05:47:47.748Z,98.68
2022-09-20T05:50:15.104Z,98.46
2022-09-20T05:52:41.371Z,98.50
2022-09-20T05:55:07.643Z,100.00
2022-09-20T05:57:33.994Z,98.91
2022-09-20T06:00:00.458Z,99.56
2022-09-20T06:02:27.173Z,98.90
2022-09-20T06:04:56.523Z,99.31
2022-09-20T06:07:22.927Z,98.92
2022-09-20T06:09:49.173Z,98.53
2022-09-20T06:12:15.415Z,98.31
2022-09-20T06:14:42.760Z,98.16
2022-09-20T06:17:09.017Z,99.24
2022-09-20T06:19:35.443Z,100.00
2022-09-20T06:22:03.770Z,99.47
2022-09-20T06:24:30.553Z,99.27
2022-09-20T06:26:56.800Z,98.70
2022-09-20T06:29:23.038Z,99.39
2022-09-20T06:31:49.314Z,100.00
2022-09-20T06:34:15.651Z,99.67
2022-09-20T06:37:00.595Z,98.51
2022-09-20T06:39:45.412Z,96.99
2022-09-20T06:42:11.661Z,95.36
2022-09-20T06:44:43.123Z,93.72
2022-09-20T06:47:09.887Z,93.11
2022-09-20T06:49:36.429Z,92.17
2022-09-20T06:52:02.967Z,92.38
2022-09-20T06:54:29.467Z,94.06
2022-09-20T06:56:55.777Z,94.39
2022-09-20T06:59:22.095Z,94.42
2022-09-20T07:01:48.415Z,92.15
2022-09-20T07:04:14.742Z,92.60
2022-09-20T07:06:41.326Z,91.45
2022-09-20T07:09:07.597Z,91.61
2022-09-20T07:11:37.312Z,91.02
2022-09-20T07:14:03.583Z,90.28
2022-09-20T07:16:29.910Z,91.66
2022-09-20T07:18:56.838Z,90.49
2022-09-20T07:21:23.180Z,91.61
2022-09-20T07:23:51.121Z,90.60
2022-09-20T07:26:17.438Z,90.37
2022-09-20T07:28:43.704Z,90.91
2022-09-20T07:31:10.516Z,91.60
2022-09-20T07:33:36.780Z,90.72
2022-09-20T07:36:03.061Z,91.33
2022-09-20T07:38:29.321Z,92.85
2022-09-20T07:40:55.973Z,93.72
2022-09-20T07:43:22.701Z,93.12
2022-09-20T07:45:49.493Z,93.44
2022-09-20T07:48:16.191Z,93.35
2022-09-20T07:50:42.660Z,93.49
2022-09-20T07:53:08.919Z,93.45
2022-09-20T07:55:35.628Z,92.84
2022-09-20T07:58:01.878Z,92.80
2022-09-20T08:00:28.141Z,92.79
2022-09-20T08:02:54.397Z,92.23
2022-09-20T08:05:20.671Z,92.70
2022-09-20T08:07:46.909Z,92.46
2022-09-20T08:10:13.313Z,92.62
2022-09-20T08:15:27.275Z,91.57
2022-09-20T08:17:53.523Z,91.71
2022-09-20T08:20:20.200Z,90.87
2022-09-20T08:23:00.920Z,90.72
2022-09-20T08:25:32.825Z,92.31
2022-09-20T08:27:59.083Z,90.37
2022-09-20T08:30:27.767Z,91.69
2022-09-20T08:32:55.689Z,91.85
2022-09-20T08:35:22.532Z,88.84
2022-09-20T08:37:48.815Z,89.11
2022-09-20T08:40:15.742Z,89.67
2022-09-20T08:42:44.790Z,89.92
2022-09-20T08:45:11.421Z,87.11
2022-09-20T08:47:38.793Z,87.32
2022-09-20T08:50:17.296Z,86.24
2022-09-20T08:52:44.767Z,85.75
2022-09-20T08:55:11.026Z,83.88
2022-09-20T08:57:37.282Z,83.82
2022-09-20T09:00:03.526Z,82.73
2022-09-20T09:02:29.800Z,83.14
2022-09-20T09:04:56.270Z,82.19
2022-09-20T09:07:22.642Z,82.81
2022-09-20T09:09:48.889Z,83.06
2022-09-20T09:12:15.159Z,83.11
2022-09-20T09:14:57.150Z,81.83
2022-09-20T09:17:27.363Z,81.93
2022-09-20T09:19:54.054Z,81.69
2022-09-20T09:22:20.604Z,81.00
2022-09-20T09:24:46.864Z,81.35
2022-09-20T09:27:13.136Z,80.91
2022-09-20T09:29:39.401Z,80.03
2022-09-20T09:32:05.729Z,81.50
2022-09-20T09:34:32.068Z,82.63
2022-09-20T09:36:58.368Z,83.16
2022-09-20T09:39:24.652Z,83.98
2022-09-20T09:41:51.156Z,84.48
2022-09-20T09:44:18.187Z,81.58
2022-09-20T09:46:44.447Z,81.42
2022-09-20T09:49:12.554Z,81.99
2022-09-20T09:51:39.278Z,81.94
2022-09-20T09:54:05.525Z,82.65
2022-09-20T09:56:31.915Z,82.67
2022-09-20T09:58:58.294Z,83.46
2022-09-20T10:01:24.601Z,84.80
2022-09-20T10:03:50.869Z,85.67
2022-09-20T10:06:18.215Z,84.12
2022-09-20T10:08:44.613Z,83.61
2022-09-20T10:11:11.298Z,83.77
2022-09-20T10:13:40.625Z,83.24
2022-09-20T10:16:07.230Z,82.36
2022-09-20T10:18:33.595Z,82.45
2022-09-20T10:20:59.946Z,81.22
2022-09-20T10:23:51.579Z,78.79
2022-09-20T10:26:13.331Z,79.03
2022-09-20T10:28:48.283Z,80.09
2022-09-20T10:31:14.710Z,79.94
2022-09-20T10:33:41.315Z,78.85
2022-09-20T10:36:07.572Z,79.45
2022-09-20T10:38:33.835Z,80.15
2022-09-20T10:41:18.961Z,76.95
2022-09-20T10:43:45.229Z,76.67
2022-09-20T10:46:31.345Z,74.48
2022-09-20T10:48:58.016Z,74.42
2022-09-20T10:51:25.119Z,73.90
2022-09-20T10:53:52.039Z,74.75
2022-09-20T10:56:18.308Z,75.89
2022-09-20T10:58:46.389Z,74.30
2022-09-20T11:01:12.680Z,75.49
2022-09-20T11:03:39.034Z,74.29
2022-09-20T11:06:06.259Z,73.19
2022-09-20T11:08:32.524Z,72.83
2022-09-20T11:10:58.782Z,72.67
2022-09-20T11:13:25.051Z,72.54
2022-09-20T11:15:52.535Z,72.50
2022-09-20T11:18:23.377Z,73.41
2022-09-20T11:20:49.665Z,70.88
2022-09-20T11:23:15.938Z,72.17
2022-09-20T11:25:44.251Z,70.66
2022-09-20T11:28:10.564Z,70.51
2022-09-20T11:30:36.807Z,72.23
2022-09-20T11:33:03.077Z,70.44
2022-09-20T11:35:29.327Z,71.14
2022-09-20T11:37:56.739Z,72.68
2022-09-20T11:40:23.048Z,70.84
2022-09-20T11:42:49.337Z,71.52
2022-09-20T11:45:15.573Z,72.30
2022-09-20T11:47:54.457Z,69.97
2022-09-20T11:50:21.692Z,68.80
2022-09-20T11:52:47.959Z,68.13
2022-09-20T11:55:14.451Z,68.14
2022-09-20T11:57:40.719Z,67.42
2022-09-20T12:00:08.521Z,70.91
2022-09-20T12:02:34.976Z,69.76
2022-09-20T12:05:01.933Z,69.97
2022-09-20T12:07:28.216Z,69.83
2022-09-20T12:09:54.463Z,72.40
2022-09-20T12:12:21.226Z,70.37
2022-09-20T12:14:48.862Z,70.62
2022-09-20T12:17:15.287Z,68.60
2022-09-20T12:19:41.537Z,67.27
2022-09-20T12:22:07.790Z,64.89
2022-09-20T12:24:34.029Z,63.93
2022-09-20T12:27:00.373Z,66.63
2022-09-20T12:29:31.156Z,63.28
2022-09-20T12:31:57.464Z,62.87
2022-09-20T12:34:23.758Z,62.62
2022-09-20T12:36:50.034Z,64.62
2022-09-20T12:39:21.244Z,64.43
2022-09-20T12:41:49.640Z,64.90
2022-09-20T12:44:15.945Z,64.41
2022-09-20T12:46:42.240Z,65.30
2022-09-20T12:49:08.598Z,65.67
2022-09-20T12:51:53.679Z,67.67
2022-09-20T12:54:19.937Z,67.78
2022-09-20T12:56:46.613Z,67.94
2022-09-20T12:59:12.868Z,67.76
2022-09-20T13:01:39.230Z,67.59
2022-09-20T13:04:05.724Z,66.85
2022-09-20T13:06:32.103Z,67.06
2022-09-20T13:08:58.716Z,65.72
2022-09-20T13:11:25.121Z,63.18
2022-09-20T13:13:51.573Z,63.24
2022-09-20T13:16:20.015Z,62.46
2022-09-20T13:18:46.402Z,59.55
2022-09-20T13:21:12.682Z,61.98
2022-09-20T13:23:39.851Z,60.06
2022-09-20T13:26:06.970Z,60.16
2022-09-20T13:28:33.200Z,62.63
2022-09-20T13:30:59.450Z,61.67
2022-09-20T13:33:25.699Z,59.92
2022-09-20T13:35:52.334Z,61.43
2022-09-20T13:38:22.558Z,61.44
2022-09-20T13:40:48.849Z,60.87
2022-09-20T13:43:23.629Z,62.52
2022-09-20T13:45:50.946Z,62.33
2022-09-20T13:48:17.305Z,60.75
2022-09-20T13:50:48.057Z,62.17
2022-09-20T13:53:33.285Z,62.14
2022-09-20T13:56:02.720Z,62.42
2022-09-20T13:58:28.975Z,62.69
2022-09-20T14:00:55.317Z,62.09
2022-09-20T14:03:21.610Z,60.84
2022-09-20T14:05:47.946Z,54.77
2022-09-20T14:08:14.284Z,55.18
2022-09-20T14:10:42.953Z,58.14
2022-09-20T14:13:09.498Z,64.89
2022-09-20T14:15:35.816Z,74.49
2022-09-20T14:18:04.337Z,77.03
2022-09-20T14:20:30.573Z,75.42
2022-09-20T14:22:59.106Z,76.27
2022-09-20T14:25:25.846Z,76.42
2022-09-20T14:27:52.104Z,78.11
2022-09-20T14:30:18.354Z,75.63
2022-09-20T14:32:44.934Z,74.68
2022-09-20T14:35:11.189Z,73.64
2022-09-20T14:37:37.574Z,74.48
2022-09-20T14:40:04.126Z,74.41
2022-09-20T14:42:30.429Z,71.76
2022-09-20T14:44:56.691Z,72.60
2022-09-20T14:47:23.113Z,68.88
2022-09-20T14:49:49.807Z,69.75
2022-09-20T14:52:16.099Z,68.03
2022-09-20T14:54:42.364Z,67.38
2022-09-20T14:57:08.614Z,69.33
2022-09-20T14:59:34.861Z,70.02
2022-09-20T15:02:01.121Z,70.74
2022-09-20T15:04:28.443Z,70.71
2022-09-20T15:06:54.712Z,69.53
2022-09-20T15:09:20.975Z,70.36
2022-09-20T15:11:47.242Z,69.89
2022-09-20T15:14:13.567Z,66.95
2022-09-20T15:16:39.982Z,67.23
2022-09-20T15:19:07.956Z,65.95
2022-09-20T15:21:34.225Z,68.21
2022-09-20T15:24:00.543Z,68.59
2022-09-20T15:26:26.791Z,69.00
2022-09-20T15:28:53.114Z,71.33
2022-09-20T15:31:20.198Z,69.15
2022-09-20T15:33:46.439Z,70.17
2022-09-20T15:36:12.698Z,67.76
2022-09-20T15:38:39.178Z,69.38
2022-09-20T15:41:05.903Z,71.00
2022-09-20T15:43:32.187Z,70.61
2022-09-20T15:46:00.504Z,68.81
2022-09-20T15:48:26.814Z,70.90
2022-09-20T15:50:53.076Z,72.01
2022-09-20T15:53:19.344Z,72.39
2022-09-20T15:55:45.899Z,72.69
2022-09-20T15:58:13.967Z,71.02
2022-09-20T16:00:40.642Z,72.45
2022-09-20T16:03:06.945Z,73.59
2022-09-20T16:05:33.225Z,73.68
2022-09-20T16:07:59.482Z,72.40
2022-09-20T16:10:25.793Z,72.33
2022-09-20T16:12:52.052Z,73.18
2022-09-20T16:15:18.307Z,73.28
2022-09-20T16:18:03.363Z,73.53
2022-09-20T16:20:29.612Z,73.72
2022-09-20T16:22:55.879Z,73.82
2022-09-20T16:25:22.125Z,75.05
2022-09-20T16:27:48.387Z,75.16
2022-09-20T16:30:15.112Z,75.99
2022-09-20T16:32:41.985Z,76.31
2022-09-20T16:35:08.285Z,77.19
2022-09-20T16:37:36.703Z,76.49
2022-09-20T16:40:03.873Z,77.83
2022-09-20T16:42:30.142Z,77.63
2022-09-20T16:44:57.219Z,77.35
2022-09-20T16:47:25.058Z,76.60
2022-09-20T16:49:53.106Z,77.96
2022-09-20T16:52:19.432Z,78.38
2022-09-20T16:54:45.687Z,78.70
2022-09-20T16:57:15.423Z,77.41
2022-09-20T16:59:42.095Z,78.27
2022-09-20T17:02:08.415Z,78.00
2022-09-20T17:04:34.774Z,78.81
2022-09-20T17:07:01.684Z,78.93
2022-09-20T17:09:28.624Z,76.67
2022-09-20T17:11:54.914Z,79.15
2022-09-20T17:14:21.849Z,78.36
2022-09-20T17:16:48.370Z,80.40
2022-09-20T17:19:15.610Z,80.06
2022-09-20T17:21:46.123Z,81.36
2022-09-20T17:24:13.704Z,82.93
2022-09-20T17:26:40.278Z,83.04
2022-09-20T17:29:06.575Z,84.88
2022-09-20T17:31:33.901Z,85.99
2022-09-20T17:34:00.350Z,83.78
2022-09-20T17:36:27.414Z,83.94
2022-09-20T17:38:53.607Z,84.46
2022-09-20T17:41:19.858Z,82.46
2022-09-20T17:43:46.223Z,83.63
2022-09-20T17:46:12.485Z,83.55
2022-09-20T17:48:38.777Z,82.51
2022-09-20T17:51:07.266Z,82.82
2022-09-20T17:53:36.752Z,82.45
2022-09-20T17:56:03.056Z,86.05
2022-09-20T17:58:29.377Z,86.55
2022-09-20T18:00:58.690Z,86.73
2022-09-20T18:03:24.995Z,87.11
2022-09-20T18:05:51.360Z,87.87
2022-09-20T18:08:17.632Z,87.22
2022-09-20T18:10:43.879Z,88.05
2022-09-20T18:13:10.137Z,88.21
2022-09-20T18:15:36.401Z,88.10
2022-09-20T18:18:03.003Z,88.28
2022-09-20T18:20:29.728Z,88.19
2022-09-20T18:22:55.985Z,88.29
2022-09-20T18:25:24.098Z,87.77
2022-09-20T18:27:50.603Z,87.44
2022-09-20T18:30:17.824Z,87.95
2022-09-20T18:32:44.370Z,87.69
2022-09-20T18:35:10.674Z,87.64
2022-09-20T18:37:37.718Z,87.87
2022-09-20T18:40:04.038Z,88.61
2022-09-20T18:42:30.906Z,88.03
2022-09-20T18:44:58.487Z,88.02
2022-09-20T18:47:24.870Z,87.96
2022-09-20T18:49:51.160Z,88.00
2022-09-20T18:52:24.008Z,88.38
2022-09-20T18:54:50.370Z,88.39
2022-09-20T18:57:16.627Z,87.74
2022-09-20T18:59:53.577Z,88.24
2022-09-20T19:02:20.675Z,88.12
2022-09-20T19:04:46.931Z,88.19
2022-09-20T19:07:13.200Z,88.06
2022-09-20T19:09:39.442Z,87.66
2022-09-20T19:12:05.993Z,87.48
2022-09-20T19:14:32.256Z,87.13
2022-09-20T19:16:58.512Z,87.14
2022-09-20T19:19:24.789Z,87.05
2022-09-20T19:21:51.047Z,87.21
2022-09-20T19:24:17.303Z,88.28
2022-09-20T19:26:44.116Z,88.19
2022-09-20T19:29:14.007Z,87.89
2022-09-20T19:31:40.294Z,88.24
2022-09-20T19:34:06.595Z,88.01
2022-09-20T19:36:33.017Z,87.82
2022-09-20T19:38:59.268Z,87.53
2022-09-20T19:41:27.257Z,88.27
2022-09-20T19:43:53.990Z,88.61
2022-09-20T19:46:20.805Z,87.69
2022-09-20T19:48:48.185Z,87.85
2022-09-20T19:51:15.175Z,87.80
2022-09-20T19:53:41.474Z,87.97
2022-09-20T19:56:07.747Z,88.07
2022-09-20T19:58:35.045Z,88.10
2022-09-20T20:01:01.317Z,89.28
2022-09-20T20:03:29.779Z,89.53
2022-09-20T20:05:56.075Z,90.22
2022-09-20T20:08:22.386Z,90.55
2022-09-20T20:10:49.700Z,90.66
2022-09-20T20:13:36.213Z,90.44
2022-09-20T20:16:02.502Z,90.64
2022-09-20T20:18:29.042Z,90.42
2022-09-20T20:20:56.481Z,90.58
2022-09-20T20:23:22.739Z,90.21
2022-09-20T20:25:49.859Z,89.48
2022-09-20T20:28:16.099Z,90.49
2022-09-20T20:30:42.563Z,90.47
2022-09-20T20:33:08.860Z,90.11
2022-09-20T20:35:37.305Z,90.21
2022-09-20T20:38:03.576Z,90.28
2022-09-20T20:40:29.856Z,90.97
2022-09-20T20:43:01.838Z,91.00
2022-09-20T20:45:28.104Z,90.85
2022-09-20T20:47:54.367Z,90.06
2022-09-20T20:50:20.807Z,90.36
2022-09-20T20:52:47.057Z,90.77
2022-09-20T20:55:13.456Z,92.38
2022-09-20T20:57:39.741Z,93.32
2022-09-20T21:00:05.994Z,93.14
2022-09-20T21:02:32.294Z,94.51
2022-09-20T21:04:58.731Z,94.71
2022-09-20T21:07:24.991Z,93.89
2022-09-20T21:09:51.246Z,93.57
2022-09-20T21:12:18.436Z,92.66
2022-09-20T21:14:45.086Z,92.96
2022-09-20T21:17:11.389Z,92.74
2022-09-20T21:19:37.653Z,92.27
2022-09-20T21:22:03.936Z,92.61
2022-09-20T21:24:30.190Z,93.85
2022-09-20T21:26:56.490Z,93.96
2022-09-20T21:29:22.831Z,93.89
2022-09-20T21:31:49.108Z,93.25
2022-09-20T21:34:15.452Z,92.99
2022-09-20T21:36:41.802Z,93.54
2022-09-20T21:39:08.133Z,93.73
2022-09-20T21:41:34.512Z,93.43
2022-09-20T21:44:00.762Z,93.87
2022-09-20T21:46:30.222Z,93.44
2022-09-20T21:48:56.554Z,93.38
2022-09-20T21:51:22.830Z,93.09
2022-09-20T21:53:49.380Z,93.26
2022-09-20T21:56:16.134Z,92.73
2022-09-20T21:58:42.382Z,92.61
2022-09-20T22:01:11.699Z,92.71
2022-09-20T22:03:38.123Z,92.61
2022-09-20T22:06:04.562Z,92.41
2022-09-20T22:08:30.815Z,92.58
2022-09-20T22:10:57.160Z,93.32
2022-09-20T22:13:23.530Z,92.91
2022-09-20T22:15:49.837Z,92.92
2022-09-20T22:18:16.149Z,92.42
2022-09-20T22:20:42.402Z,92.76
2022-09-20T22:23:09.715Z,92.66
2022-09-20T22:25:35.961Z,92.76
2022-09-20T22:28:02.207Z,92.79
2022-09-20T22:30:28.516Z,92.92
2022-09-20T22:32:54.860Z,93.15
2022-09-20T22:35:21.135Z,93.04
2022-09-20T22:37:47.403Z,92.93
2022-09-20T22:40:13.682Z,93.10
2022-09-20T22:42:39.967Z,93.11
2022-09-20T22:45:06.219Z,93.12
2022-09-20T22:47:32.470Z,92.94
2022-09-20T22:49:58.839Z,93.93
2022-09-20T22:52:25.102Z,93.85
2022-09-20T22:54:51.355Z,93.59
2022-09-20T22:57:18.148Z,93.38
2022-09-20T22:59:44.403Z,93.75
2022-09-20T23:02:10.664Z,93.87
2022-09-20T23:04:36.923Z,93.60
2022-09-20T23:07:03.179Z,93.50
2022-09-20T23:09:29.439Z,93.49
2022-09-20T23:11:55.706Z,93.53
2022-09-20T23:14:21.994Z,93.01
2022-09-20T23:16:48.315Z,92.84
2022-09-20T23:19:14.676Z,93.02
2022-09-20T23:21:40.938Z,93.02
2022-09-20T23:24:07.219Z,93.27
2022-09-20T23:26:33.479Z,92.87
2022-09-20T23:28:59.748Z,93.58
2022-09-20T23:31:26.004Z,92.92
2022-09-20T23:33:52.315Z,92.82
2022-09-20T23:36:18.555Z,92.63
2022-09-20T23:38:44.819Z,92.40
2022-09-20T23:41:14.943Z,92.38
2022-09-20T23:43:41.194Z,92.92
2022-09-20T23:46:07.504Z,92.65
2022-09-20T23:48:36.051Z,92.81
2022-09-20T23:51:02.313Z,93.06
2022-09-20T23:53:28.557Z,93.43
2022-09-20T23:55:54.809Z,92.95
2022-09-20T23:58:21.087Z,92.91
